sensor_id;sensor_type;location;lat;lon;timestamp;P1;durP1;ratioP1;P2;durP2;ratioP2
17965;SDS011;9108;53.204;10.424;2023-07-28T00:00:00;4.97;;;4.30;;
17965;SDS011;9108;53.204;10.424;2023-07-28T00:02:29;6.57;;;4.78;;
17965;SDS011;9108;53.204;10.424;2023-07-28T00:04:56;7.53;;;4.30;;
17965;SDS011;9108;53.204;10.424;2023-07-28T00:07:23;4.90;;;3.78;;
17965;SDS011;9108;53.204;10.424;2023-07-28T00:09:51;9.50;;;4.30;;
17965;SDS011;9108;53.204;10.424;2023-07-28T00:12:21;4.80;;;3.40;;
17965;SDS011;9108;53.204;10.424;2023-07-28T00:14:48;4.93;;;3.50;;
17965;SDS011;9108;53.204;10.424;2023-07-28T00:17:19;4.97;;;3.58;;
17965;SDS011;9108;53.204;10.424;2023-07-28T00:19:47;6.07;;;4.22;;
17965;SDS011;9108;53.204;10.424;2023-07-28T00:22:17;6.20;;;4.05;;
17965;SDS011;9108;53.204;10.424;2023-07-28T00:24:45;4.60;;;3.53;;
17965;SDS011;9108;53.204;10.424;2023-07-28T00:27:14;5.00;;;3.10;;
17965;SDS011;9108;53.204;10.424;2023-07-28T00:29:43;3.10;;;2.70;;
17965;SDS011;9108;53.204;10.424;2023-07-28T00:32:11;4.00;;;3.10;;
17965;SDS011;9108;53.204;10.424;2023-07-28T00:34:39;4.50;;;3.78;;
17965;SDS011;9108;53.204;10.424;2023-07-28T00:37:08;4.95;;;3.45;;
17965;SDS011;9108;53.204;10.424;2023-07-28T00:39:35;4.43;;;3.67;;
17965;SDS011;9108;53.204;10.424;2023-07-28T00:42:06;4.72;;;3.67;;
17965;SDS011;9108;53.204;10.424;2023-07-28T00:44:34;6.00;;;3.43;;
17965;SDS011;9108;53.204;10.424;2023-07-28T00:47:06;5.15;;;3.70;;
17965;SDS011;9108;53.204;10.424;2023-07-28T00:49:34;5.78;;;3.70;;
17965;SDS011;9108;53.204;10.424;2023-07-28T00:52:02;4.68;;;3.83;;
17965;SDS011;9108;53.204;10.424;2023-07-28T00:54:34;4.40;;;3.47;;
17965;SDS011;9108;53.204;10.424;2023-07-28T00:57:01;5.37;;;3.67;;
17965;SDS011;9108;53.204;10.424;2023-07-28T00:59:32;3.78;;;3.20;;
17965;SDS011;9108;53.204;10.424;2023-07-28T01:01:59;5.43;;;3.33;;
17965;SDS011;9108;53.204;10.424;2023-07-28T01:04:35;5.43;;;3.40;;
17965;SDS011;9108;53.204;10.424;2023-07-28T01:07:06;3.50;;;2.83;;
17965;SDS011;9108;53.204;10.424;2023-07-28T01:09:40;3.85;;;2.80;;
17965;SDS011;9108;53.204;10.424;2023-07-28T01:12:10;3.45;;;2.53;;
17965;SDS011;9108;53.204;10.424;2023-07-28T01:14:40;3.33;;;2.40;;
17965;SDS011;9108;53.204;10.424;2023-07-28T01:17:07;4.30;;;2.65;;
17965;SDS011;9108;53.204;10.424;2023-07-28T01:19:35;3.25;;;2.50;;
17965;SDS011;9108;53.204;10.424;2023-07-28T01:22:19;4.75;;;2.55;;
17965;SDS011;9108;53.204;10.424;2023-07-28T01:24:49;3.47;;;2.45;;
17965;SDS011;9108;53.204;10.424;2023-07-28T01:27:19;5.10;;;2.63;;
17965;SDS011;9108;53.204;10.424;2023-07-28T01:29:55;3.60;;;2.50;;
17965;SDS011;9108;53.204;10.424;2023-07-28T01:32:22;4.03;;;2.90;;
17965;SDS011;9108;53.204;10.424;2023-07-28T01:34:49;5.00;;;2.85;;
17965;SDS011;9108;53.204;10.424;2023-07-28T01:37:18;3.97;;;2.60;;
17965;SDS011;9108;53.204;10.424;2023-07-28T01:39:46;4.78;;;2.50;;
17965;SDS011;9108;53.204;10.424;2023-07-28T01:42:13;3.47;;;2.58;;
17965;SDS011;9108;53.204;10.424;2023-07-28T01:44:41;3.72;;;2.33;;
17965;SDS011;9108;53.204;10.424;2023-07-28T01:47:08;4.97;;;2.70;;
17965;SDS011;9108;53.204;10.424;2023-07-28T01:49:37;3.55;;;2.58;;
17965;SDS011;9108;53.204;10.424;2023-07-28T01:52:09;4.50;;;3.05;;
17965;SDS011;9108;53.204;10.424;2023-07-28T01:54:43;5.25;;;2.90;;
17965;SDS011;9108;53.204;10.424;2023-07-28T01:57:12;4.28;;;2.97;;
17965;SDS011;9108;53.204;10.424;2023-07-28T01:59:47;3.80;;;2.70;;
17965;SDS011;9108;53.204;10.424;2023-07-28T02:02:14;3.78;;;2.53;;
17965;SDS011;9108;53.204;10.424;2023-07-28T02:04:41;3.70;;;2.35;;
17965;SDS011;9108;53.204;10.424;2023-07-28T02:07:08;5.35;;;2.60;;
17965;SDS011;9108;53.204;10.424;2023-07-28T02:09:35;3.57;;;2.43;;
17965;SDS011;9108;53.204;10.424;2023-07-28T02:12:03;4.03;;;2.38;;
17965;SDS011;9108;53.204;10.424;2023-07-28T02:14:30;5.38;;;2.15;;
17965;SDS011;9108;53.204;10.424;2023-07-28T02:16:59;2.75;;;2.15;;
17965;SDS011;9108;53.204;10.424;2023-07-28T02:19:28;4.35;;;2.20;;
17965;SDS011;9108;53.204;10.424;2023-07-28T02:21:56;3.90;;;2.10;;
17965;SDS011;9108;53.204;10.424;2023-07-28T02:24:25;2.60;;;2.00;;
17965;SDS011;9108;53.204;10.424;2023-07-28T02:26:52;2.67;;;2.10;;
17965;SDS011;9108;53.204;10.424;2023-07-28T02:29:22;4.88;;;2.30;;
17965;SDS011;9108;53.204;10.424;2023-07-28T02:31:54;3.95;;;2.00;;
17965;SDS011;9108;53.204;10.424;2023-07-28T02:34:23;3.13;;;2.00;;
17965;SDS011;9108;53.204;10.424;2023-07-28T02:36:50;4.07;;;2.03;;
17965;SDS011;9108;53.204;10.424;2023-07-28T02:39:17;4.32;;;2.10;;
17965;SDS011;9108;53.204;10.424;2023-07-28T02:41:47;6.25;;;2.00;;
17965;SDS011;9108;53.204;10.424;2023-07-28T02:44:25;4.38;;;2.00;;
17965;SDS011;9108;53.204;10.424;2023-07-28T02:46:52;2.95;;;2.13;;
17965;SDS011;9108;53.204;10.424;2023-07-28T02:49:20;3.80;;;2.00;;
17965;SDS011;9108;53.204;10.424;2023-07-28T02:51:49;4.75;;;2.10;;
17965;SDS011;9108;53.204;10.424;2023-07-28T02:54:16;5.82;;;2.00;;
17965;SDS011;9108;53.204;10.424;2023-07-28T02:56:43;2.40;;;1.90;;
17965;SDS011;9108;53.204;10.424;2023-07-28T02:59:16;3.00;;;1.87;;
17965;SDS011;9108;53.204;10.424;2023-07-28T03:01:43;2.35;;;1.77;;
17965;SDS011;9108;53.204;10.424;2023-07-28T03:04:13;2.72;;;1.80;;
17965;SDS011;9108;53.204;10.424;2023-07-28T03:06:43;3.17;;;1.77;;
17965;SDS011;9108;53.204;10.424;2023-07-28T03:09:20;4.40;;;2.13;;
17965;SDS011;9108;53.204;10.424;2023-07-28T03:11:48;5.30;;;2.03;;
17965;SDS011;9108;53.204;10.424;2023-07-28T03:14:18;2.75;;;1.90;;
17965;SDS011;9108;53.204;10.424;2023-07-28T03:16:46;3.70;;;2.03;;
17965;SDS011;9108;53.204;10.424;2023-07-28T03:19:13;4.97;;;1.80;;
17965;SDS011;9108;53.204;10.424;2023-07-28T03:21:45;2.72;;;1.70;;
17965;SDS011;9108;53.204;10.424;2023-07-28T03:24:14;3.25;;;1.70;;
17965;SDS011;9108;53.204;10.424;2023-07-28T03:26:44;3.05;;;1.70;;
17965;SDS011;9108;53.204;10.424;2023-07-28T03:29:16;2.95;;;1.50;;
17965;SDS011;9108;53.204;10.424;2023-07-28T03:31:44;2.45;;;1.60;;
17965;SDS011;9108;53.204;10.424;2023-07-28T03:34:14;2.65;;;1.70;;
17965;SDS011;9108;53.204;10.424;2023-07-28T03:36:42;3.37;;;2.00;;
17965;SDS011;9108;53.204;10.424;2023-07-28T03:39:09;2.90;;;2.20;;
17965;SDS011;9108;53.204;10.424;2023-07-28T03:41:39;4.00;;;2.28;;
17965;SDS011;9108;53.204;10.424;2023-07-28T03:44:06;3.47;;;2.40;;
17965;SDS011;9108;53.204;10.424;2023-07-28T03:46:33;4.80;;;2.90;;
17965;SDS011;9108;53.204;10.424;2023-07-28T03:49:03;5.97;;;3.20;;
17965;SDS011;9108;53.204;10.424;2023-07-28T03:51:36;8.38;;;3.90;;
17965;SDS011;9108;53.204;10.424;2023-07-28T03:54:04;8.13;;;4.50;;
17965;SDS011;9108;53.204;10.424;2023-07-28T03:56:31;9.88;;;5.30;;
17965;SDS011;9108;53.204;10.424;2023-07-28T03:59:02;9.85;;;5.55;;
17965;SDS011;9108;53.204;10.424;2023-07-28T04:01:32;13.45;;;6.05;;
17965;SDS011;9108;53.204;10.424;2023-07-28T04:04:01;11.80;;;6.22;;
17965;SDS011;9108;53.204;10.424;2023-07-28T04:06:41;12.50;;;6.20;;
17965;SDS011;9108;53.204;10.424;2023-07-28T04:09:12;10.25;;;6.03;;
17965;SDS011;9108;53.204;10.424;2023-07-28T04:11:39;13.55;;;6.47;;
17965;SDS011;9108;53.204;10.424;2023-07-28T04:14:13;15.32;;;6.90;;
17965;SDS011;9108;53.204;10.424;2023-07-28T04:16:40;11.25;;;6.57;;
17965;SDS011;9108;53.204;10.424;2023-07-28T04:19:07;12.05;;;6.82;;
17965;SDS011;9108;53.204;10.424;2023-07-28T04:21:38;11.43;;;6.47;;
17965;SDS011;9108;53.204;10.424;2023-07-28T04:24:05;11.95;;;6.63;;
17965;SDS011;9108;53.204;10.424;2023-07-28T04:26:36;13.65;;;7.03;;
17965;SDS011;9108;53.204;10.424;2023-07-28T04:29:03;12.15;;;6.80;;
17965;SDS011;9108;53.204;10.424;2023-07-28T04:31:34;11.98;;;6.75;;
17965;SDS011;9108;53.204;10.424;2023-07-28T04:34:05;12.10;;;6.72;;
17965;SDS011;9108;53.204;10.424;2023-07-28T04:36:32;12.68;;;6.90;;
17965;SDS011;9108;53.204;10.424;2023-07-28T04:38:59;15.23;;;7.53;;
17965;SDS011;9108;53.204;10.424;2023-07-28T04:41:31;12.20;;;6.95;;
17965;SDS011;9108;53.204;10.424;2023-07-28T04:44:02;13.32;;;6.90;;
17965;SDS011;9108;53.204;10.424;2023-07-28T04:46:30;12.23;;;6.30;;
17965;SDS011;9108;53.204;10.424;2023-07-28T04:48:58;13.95;;;6.78;;
17965;SDS011;9108;53.204;10.424;2023-07-28T04:51:27;11.00;;;6.55;;
17965;SDS011;9108;53.204;10.424;2023-07-28T04:53:54;11.77;;;6.20;;
17965;SDS011;9108;53.204;10.424;2023-07-28T04:56:24;13.40;;;6.85;;
17965;SDS011;9108;53.204;10.424;2023-07-28T04:58:52;11.43;;;6.43;;
17965;SDS011;9108;53.204;10.424;2023-07-28T05:01:19;11.02;;;6.55;;
17965;SDS011;9108;53.204;10.424;2023-07-28T05:03:47;11.93;;;6.35;;
17965;SDS011;9108;53.204;10.424;2023-07-28T05:06:16;12.43;;;6.50;;
17965;SDS011;9108;53.204;10.424;2023-07-28T05:08:43;11.23;;;6.28;;
17965;SDS011;9108;53.204;10.424;2023-07-28T05:11:10;13.60;;;6.80;;
17965;SDS011;9108;53.204;10.424;2023-07-28T05:13:38;11.68;;;6.10;;
17965;SDS011;9108;53.204;10.424;2023-07-28T05:16:07;12.83;;;6.00;;
17965;SDS011;9108;53.204;10.424;2023-07-28T05:18:36;5.57;;;2.88;;
17965;SDS011;9108;53.204;10.424;2023-07-28T05:21:04;4.25;;;2.55;;
17965;SDS011;9108;53.204;10.424;2023-07-28T05:23:33;4.72;;;2.60;;
17965;SDS011;9108;53.204;10.424;2023-07-28T05:26:05;4.15;;;2.35;;
17965;SDS011;9108;53.204;10.424;2023-07-28T05:28:33;4.47;;;2.13;;
17965;SDS011;9108;53.204;10.424;2023-07-28T05:31:04;4.65;;;2.30;;
17965;SDS011;9108;53.204;10.424;2023-07-28T05:33:31;5.13;;;2.20;;
17965;SDS011;9108;53.204;10.424;2023-07-28T05:35:59;3.45;;;2.20;;
17965;SDS011;9108;53.204;10.424;2023-07-28T05:38:27;5.93;;;2.97;;
17965;SDS011;9108;53.204;10.424;2023-07-28T05:40:58;5.00;;;2.88;;
17965;SDS011;9108;53.204;10.424;2023-07-28T05:43:28;5.00;;;3.15;;
17965;SDS011;9108;53.204;10.424;2023-07-28T05:45:55;6.38;;;3.25;;
17965;SDS011;9108;53.204;10.424;2023-07-28T05:48:22;4.43;;;2.90;;
17965;SDS011;9108;53.204;10.424;2023-07-28T05:50:57;5.30;;;3.13;;
17965;SDS011;9108;53.204;10.424;2023-07-28T05:53:27;4.80;;;3.28;;
17965;SDS011;9108;53.204;10.424;2023-07-28T05:55:54;5.20;;;3.67;;
17965;SDS011;9108;53.204;10.424;2023-07-28T05:58:23;4.82;;;2.97;;
17965;SDS011;9108;53.204;10.424;2023-07-28T06:00:56;4.03;;;2.63;;
17965;SDS011;9108;53.204;10.424;2023-07-28T06:03:26;3.08;;;2.55;;
17965;SDS011;9108;53.204;10.424;2023-07-28T06:05:54;3.03;;;2.20;;
17965;SDS011;9108;53.204;10.424;2023-07-28T06:08:21;2.90;;;2.20;;
17965;SDS011;9108;53.204;10.424;2023-07-28T06:10:49;2.78;;;1.90;;
17965;SDS011;9108;53.204;10.424;2023-07-28T06:13:17;3.72;;;1.90;;
17965;SDS011;9108;53.204;10.424;2023-07-28T06:15:52;3.20;;;2.15;;
17965;SDS011;9108;53.204;10.424;2023-07-28T06:18:21;3.28;;;1.95;;
17965;SDS011;9108;53.204;10.424;2023-07-28T06:20:48;3.28;;;2.10;;
17965;SDS011;9108;53.204;10.424;2023-07-28T06:23:15;3.50;;;1.95;;
17965;SDS011;9108;53.204;10.424;2023-07-28T06:25:49;3.60;;;2.00;;
17965;SDS011;9108;53.204;10.424;2023-07-28T06:28:16;2.78;;;2.00;;
17965;SDS011;9108;53.204;10.424;2023-07-28T06:30:46;4.97;;;2.00;;
17965;SDS011;9108;53.204;10.424;2023-07-28T06:33:15;2.92;;;1.95;;
17965;SDS011;9108;53.204;10.424;2023-07-28T06:35:42;3.13;;;1.90;;
17965;SDS011;9108;53.204;10.424;2023-07-28T06:38:18;2.00;;;1.60;;
17965;SDS011;9108;53.204;10.424;2023-07-28T06:40:52;2.47;;;1.80;;
17965;SDS011;9108;53.204;10.424;2023-07-28T06:43:23;2.00;;;1.20;;
17965;SDS011;9108;53.204;10.424;2023-07-28T06:45:52;3.22;;;1.20;;
17965;SDS011;9108;53.204;10.424;2023-07-28T06:48:30;1.58;;;1.30;;
17965;SDS011;9108;53.204;10.424;2023-07-28T06:50:57;2.90;;;1.10;;
17965;SDS011;9108;53.204;10.424;2023-07-28T06:53:29;2.47;;;1.13;;
17965;SDS011;9108;53.204;10.424;2023-07-28T06:55:56;1.83;;;0.80;;
17965;SDS011;9108;53.204;10.424;2023-07-28T06:58:25;1.15;;;0.80;;
17965;SDS011;9108;53.204;10.424;2023-07-28T07:00:52;2.00;;;0.80;;
17965;SDS011;9108;53.204;10.424;2023-07-28T07:03:20;3.20;;;0.80;;
17965;SDS011;9108;53.204;10.424;2023-07-28T07:05:54;1.00;;;0.60;;
17965;SDS011;9108;53.204;10.424;2023-07-28T07:08:24;2.70;;;0.80;;
17965;SDS011;9108;53.204;10.424;2023-07-28T07:10:58;1.73;;;0.60;;
17965;SDS011;9108;53.204;10.424;2023-07-28T07:13:25;2.30;;;0.70;;
17965;SDS011;9108;53.204;10.424;2023-07-28T07:15:55;1.60;;;0.80;;
17965;SDS011;9108;53.204;10.424;2023-07-28T07:18:22;2.25;;;0.60;;
17965;SDS011;9108;53.204;10.424;2023-07-28T07:21:00;1.10;;;0.60;;
17965;SDS011;9108;53.204;10.424;2023-07-28T07:23:28;1.52;;;0.70;;
17965;SDS011;9108;53.204;10.424;2023-07-28T07:25:57;1.67;;;0.80;;
17965;SDS011;9108;53.204;10.424;2023-07-28T07:28:25;1.90;;;0.70;;
17965;SDS011;9108;53.204;10.424;2023-07-28T07:30:53;1.38;;;0.70;;
17965;SDS011;9108;53.204;10.424;2023-07-28T07:33:20;1.80;;;0.90;;
17965;SDS011;9108;53.204;10.424;2023-07-28T07:38:43;2.90;;;0.90;;
17965;SDS011;9108;53.204;10.424;2023-07-28T07:41:11;1.30;;;0.90;;
17965;SDS011;9108;53.204;10.424;2023-07-28T07:43:49;2.10;;;1.15;;
17965;SDS011;9108;53.204;10.424;2023-07-28T07:46:21;3.55;;;1.23;;
17965;SDS011;9108;53.204;10.424;2023-07-28T07:48:49;2.45;;;1.20;;
17965;SDS011;9108;53.204;10.424;2023-07-28T07:51:16;2.40;;;1.20;;
17965;SDS011;9108;53.204;10.424;2023-07-28T07:56:37;2.72;;;1.42;;
17965;SDS011;9108;53.204;10.424;2023-07-28T07:59:07;1.40;;;1.30;;
17965;SDS011;9108;53.204;10.424;2023-07-28T08:01:34;7.53;;;1.43;;
17965;SDS011;9108;53.204;10.424;2023-07-28T08:04:03;2.92;;;1.35;;
17965;SDS011;9108;53.204;10.424;2023-07-28T08:06:33;1.73;;;1.20;;
17965;SDS011;9108;53.204;10.424;2023-07-28T08:09:00;2.00;;;1.38;;
17965;SDS011;9108;53.204;10.424;2023-07-28T08:11:39;3.28;;;1.48;;
17965;SDS011;9108;53.204;10.424;2023-07-28T08:14:16;2.50;;;1.42;;
17965;SDS011;9108;53.204;10.424;2023-07-28T08:16:47;2.58;;;1.60;;
17965;SDS011;9108;53.204;10.424;2023-07-28T08:19:19;1.85;;;1.30;;
17965;SDS011;9108;53.204;10.424;2023-07-28T08:21:50;2.38;;;1.50;;
17965;SDS011;9108;53.204;10.424;2023-07-28T08:24:20;2.22;;;1.58;;
17965;SDS011;9108;53.204;10.424;2023-07-28T08:26:54;3.80;;;1.67;;
17965;SDS011;9108;53.204;10.424;2023-07-28T08:29:29;1.95;;;1.70;;
17965;SDS011;9108;53.204;10.424;2023-07-28T08:31:57;3.58;;;1.77;;
17965;SDS011;9108;53.204;10.424;2023-07-28T08:34:27;2.33;;;1.90;;
17965;SDS011;9108;53.204;10.424;2023-07-28T08:36:56;2.35;;;1.83;;
17965;SDS011;9108;53.204;10.424;2023-07-28T08:39:28;4.03;;;2.00;;
17965;SDS011;9108;53.204;10.424;2023-07-28T08:41:59;2.20;;;2.00;;
17965;SDS011;9108;53.204;10.424;2023-07-28T08:44:29;2.45;;;1.85;;
17965;SDS011;9108;53.204;10.424;2023-07-28T08:47:03;2.63;;;1.85;;
17965;SDS011;9108;53.204;10.424;2023-07-28T08:49:31;4.27;;;2.20;;
17965;SDS011;9108;53.204;10.424;2023-07-28T08:52:00;2.38;;;2.05;;
17965;SDS011;9108;53.204;10.424;2023-07-28T08:54:29;2.50;;;2.30;;
17965;SDS011;9108;53.204;10.424;2023-07-28T08:56:57;4.15;;;2.30;;
17965;SDS011;9108;53.204;10.424;2023-07-28T08:59:26;3.40;;;2.60;;
17965;SDS011;9108;53.204;10.424;2023-07-28T09:01:57;3.63;;;2.80;;
17965;SDS011;9108;53.204;10.424;2023-07-28T09:04:25;5.18;;;3.20;;
17965;SDS011;9108;53.204;10.424;2023-07-28T09:06:59;4.85;;;3.30;;
17965;SDS011;9108;53.204;10.424;2023-07-28T09:09:31;5.20;;;3.38;;
17965;SDS011;9108;53.204;10.424;2023-07-28T09:12:05;4.85;;;3.53;;
17965;SDS011;9108;53.204;10.424;2023-07-28T09:14:36;5.75;;;3.83;;
17965;SDS011;9108;53.204;10.424;2023-07-28T09:17:07;5.25;;;4.07;;
17965;SDS011;9108;53.204;10.424;2023-07-28T09:19:34;5.47;;;4.00;;
17965;SDS011;9108;53.204;10.424;2023-07-28T09:22:05;4.10;;;3.70;;
17965;SDS011;9108;53.204;10.424;2023-07-28T09:24:35;9.32;;;3.70;;
17965;SDS011;9108;53.204;10.424;2023-07-28T09:27:02;4.68;;;3.50;;
17965;SDS011;9108;53.204;10.424;2023-07-28T09:29:30;5.22;;;3.17;;
17965;SDS011;9108;53.204;10.424;2023-07-28T09:32:05;3.67;;;2.80;;
17965;SDS011;9108;53.204;10.424;2023-07-28T09:34:35;3.58;;;2.63;;
17965;SDS011;9108;53.204;10.424;2023-07-28T09:37:04;3.60;;;2.77;;
17965;SDS011;9108;53.204;10.424;2023-07-28T09:39:34;4.47;;;2.95;;
17965;SDS011;9108;53.204;10.424;2023-07-28T09:42:03;3.60;;;2.60;;
17965;SDS011;9108;53.204;10.424;2023-07-28T09:44:34;3.33;;;2.53;;
17965;SDS011;9108;53.204;10.424;2023-07-28T09:47:04;3.50;;;2.38;;
17965;SDS011;9108;53.204;10.424;2023-07-28T09:49:34;3.42;;;2.40;;
17965;SDS011;9108;53.204;10.424;2023-07-28T09:52:05;2.65;;;2.40;;
17965;SDS011;9108;53.204;10.424;2023-07-28T09:54:42;4.32;;;2.60;;
17965;SDS011;9108;53.204;10.424;2023-07-28T09:57:13;3.15;;;2.47;;
17965;SDS011;9108;53.204;10.424;2023-07-28T09:59:47;3.30;;;2.58;;
17965;SDS011;9108;53.204;10.424;2023-07-28T10:02:18;2.78;;;2.22;;
17965;SDS011;9108;53.204;10.424;2023-07-28T10:04:46;3.42;;;2.40;;
17965;SDS011;9108;53.204;10.424;2023-07-28T10:07:16;3.90;;;2.60;;
17965;SDS011;9108;53.204;10.424;2023-07-28T10:09:50;3.10;;;2.60;;
17965;SDS011;9108;53.204;10.424;2023-07-28T10:12:23;3.90;;;2.70;;
17965;SDS011;9108;53.204;10.424;2023-07-28T10:14:59;3.03;;;2.65;;
17965;SDS011;9108;53.204;10.424;2023-07-28T10:17:31;4.35;;;3.20;;
17965;SDS011;9108;53.204;10.424;2023-07-28T10:20:04;3.80;;;3.28;;
17965;SDS011;9108;53.204;10.424;2023-07-28T10:22:34;4.43;;;3.20;;
17965;SDS011;9108;53.204;10.424;2023-07-28T10:25:09;3.60;;;2.60;;
17965;SDS011;9108;53.204;10.424;2023-07-28T10:27:43;3.00;;;2.40;;
17965;SDS011;9108;53.204;10.424;2023-07-28T10:30:12;4.10;;;2.88;;
17965;SDS011;9108;53.204;10.424;2023-07-28T10:32:42;2.70;;;2.38;;
17965;SDS011;9108;53.204;10.424;2023-07-28T10:35:22;3.60;;;2.60;;
17965;SDS011;9108;53.204;10.424;2023-07-28T10:37:53;4.97;;;2.70;;
17965;SDS011;9108;53.204;10.424;2023-07-28T10:40:23;3.58;;;2.13;;
17965;SDS011;9108;53.204;10.424;2023-07-28T10:42:58;3.58;;;2.10;;
17965;SDS011;9108;53.204;10.424;2023-07-28T10:45:26;4.18;;;2.08;;
17965;SDS011;9108;53.204;10.424;2023-07-28T10:47:55;4.30;;;2.17;;
17965;SDS011;9108;53.204;10.424;2023-07-28T10:50:28;3.00;;;1.88;;
17965;SDS011;9108;53.204;10.424;2023-07-28T10:52:58;2.88;;;2.00;;
17965;SDS011;9108;53.204;10.424;2023-07-28T10:55:27;2.30;;;2.10;;
17965;SDS011;9108;53.204;10.424;2023-07-28T10:57:55;2.30;;;2.10;;
17965;SDS011;9108;53.204;10.424;2023-07-28T11:00:23;2.40;;;2.20;;
17965;SDS011;9108;53.204;10.424;2023-07-28T11:02:55;3.25;;;2.60;;
17965;SDS011;9108;53.204;10.424;2023-07-28T11:05:23;2.72;;;2.20;;
17965;SDS011;9108;53.204;10.424;2023-07-28T11:10:47;2.90;;;2.15;;
17965;SDS011;9108;53.204;10.424;2023-07-28T11:13:17;3.57;;;2.20;;
17965;SDS011;9108;53.204;10.424;2023-07-28T11:15:57;3.65;;;2.10;;
17965;SDS011;9108;53.204;10.424;2023-07-28T11:18:28;3.45;;;2.10;;
17965;SDS011;9108;53.204;10.424;2023-07-28T11:20:55;2.20;;;1.80;;
17965;SDS011;9108;53.204;10.424;2023-07-28T11:23:23;1.90;;;1.80;;
17965;SDS011;9108;53.204;10.424;2023-07-28T11:25:50;1.70;;;1.60;;
17965;SDS011;9108;53.204;10.424;2023-07-28T11:28:20;2.42;;;1.60;;
17965;SDS011;9108;53.204;10.424;2023-07-28T11:30:50;1.58;;;1.48;;
17965;SDS011;9108;53.204;10.424;2023-07-28T11:33:17;2.05;;;1.83;;
17965;SDS011;9108;53.204;10.424;2023-07-28T11:35:47;6.10;;;2.00;;
17965;SDS011;9108;53.204;10.424;2023-07-28T11:38:14;2.00;;;1.80;;
17965;SDS011;9108;53.204;10.424;2023-07-28T11:40:43;2.10;;;1.90;;
17965;SDS011;9108;53.204;10.424;2023-07-28T11:43:11;2.80;;;1.75;;
17965;SDS011;9108;53.204;10.424;2023-07-28T11:45:38;3.10;;;2.13;;
17965;SDS011;9108;53.204;10.424;2023-07-28T11:48:07;2.60;;;2.40;;
17965;SDS011;9108;53.204;10.424;2023-07-28T11:50:38;9.77;;;2.53;;
17965;SDS011;9108;53.204;10.424;2023-07-28T11:53:14;4.93;;;2.88;;
17965;SDS011;9108;53.204;10.424;2023-07-28T11:55:42;5.95;;;2.90;;
17965;SDS011;9108;53.204;10.424;2023-07-28T11:58:09;4.78;;;3.10;;
17965;SDS011;9108;53.204;10.424;2023-07-28T12:00:37;3.55;;;2.90;;
17965;SDS011;9108;53.204;10.424;2023-07-28T12:03:05;4.32;;;2.80;;
17965;SDS011;9108;53.204;10.424;2023-07-28T12:05:34;3.97;;;2.90;;
17965;SDS011;9108;53.204;10.424;2023-07-28T12:08:02;3.53;;;2.97;;
17965;SDS011;9108;53.204;10.424;2023-07-28T12:10:31;5.67;;;2.80;;
17965;SDS011;9108;53.204;10.424;2023-07-28T12:13:03;4.32;;;2.80;;
17965;SDS011;9108;53.204;10.424;2023-07-28T12:15:41;5.57;;;3.00;;
17965;SDS011;9108;53.204;10.424;2023-07-28T12:18:11;3.28;;;2.97;;
17965;SDS011;9108;53.204;10.424;2023-07-28T12:20:39;4.68;;;3.10;;
17965;SDS011;9108;53.204;10.424;2023-07-28T12:23:06;4.93;;;3.10;;
17965;SDS011;9108;53.204;10.424;2023-07-28T12:25:36;4.53;;;3.20;;
17965;SDS011;9108;53.204;10.424;2023-07-28T12:28:04;4.00;;;3.20;;
17965;SDS011;9108;53.204;10.424;2023-07-28T12:30:31;4.07;;;3.13;;
17965;SDS011;9108;53.204;10.424;2023-07-28T12:32:59;4.43;;;3.08;;
17965;SDS011;9108;53.204;10.424;2023-07-28T12:35:26;3.72;;;2.83;;
17965;SDS011;9108;53.204;10.424;2023-07-28T12:37:56;3.38;;;2.47;;
17965;SDS011;9108;53.204;10.424;2023-07-28T12:40:28;2.58;;;2.22;;
17965;SDS011;9108;53.204;10.424;2023-07-28T12:42:56;2.30;;;1.88;;
17965;SDS011;9108;53.204;10.424;2023-07-28T12:45:26;2.03;;;1.70;;
17965;SDS011;9108;53.204;10.424;2023-07-28T12:47:53;2.13;;;1.60;;
17965;SDS011;9108;53.204;10.424;2023-07-28T12:50:25;1.55;;;1.40;;
17965;SDS011;9108;53.204;10.424;2023-07-28T12:53:04;2.15;;;1.70;;
17965;SDS011;9108;53.204;10.424;2023-07-28T12:55:37;2.80;;;1.70;;
17965;SDS011;9108;53.204;10.424;2023-07-28T12:58:09;3.22;;;1.48;;
17965;SDS011;9108;53.204;10.424;2023-07-28T13:00:45;2.30;;;1.60;;
17965;SDS011;9108;53.204;10.424;2023-07-28T13:03:18;2.33;;;1.67;;
17965;SDS011;9108;53.204;10.424;2023-07-28T13:05:54;2.10;;;1.55;;
17965;SDS011;9108;53.204;10.424;2023-07-28T13:08:40;1.73;;;1.60;;
17965;SDS011;9108;53.204;10.424;2023-07-28T13:11:08;3.05;;;1.80;;
17965;SDS011;9108;53.204;10.424;2023-07-28T13:13:38;2.30;;;1.97;;
17965;SDS011;9108;53.204;10.424;2023-07-28T13:16:06;2.08;;;1.70;;
17965;SDS011;9108;53.204;10.424;2023-07-28T13:18:42;1.85;;;1.65;;
17965;SDS011;9108;53.204;10.424;2023-07-28T13:21:11;2.60;;;1.80;;
17965;SDS011;9108;53.204;10.424;2023-07-28T13:23:42;2.15;;;1.80;;
17965;SDS011;9108;53.204;10.424;2023-07-28T13:26:09;1.80;;;1.70;;
17965;SDS011;9108;53.204;10.424;2023-07-28T13:28:40;3.15;;;2.00;;
17965;SDS011;9108;53.204;10.424;2023-07-28T13:31:12;2.63;;;2.10;;
17965;SDS011;9108;53.204;10.424;2023-07-28T13:33:40;3.17;;;2.00;;
17965;SDS011;9108;53.204;10.424;2023-07-28T13:36:20;1.90;;;1.80;;
17965;SDS011;9108;53.204;10.424;2023-07-28T13:38:47;2.25;;;1.90;;
17965;SDS011;9108;53.204;10.424;2023-07-28T13:41:20;2.55;;;1.70;;
17965;SDS011;9108;53.204;10.424;2023-07-28T13:43:48;2.58;;;1.50;;
17965;SDS011;9108;53.204;10.424;2023-07-28T13:46:17;1.97;;;1.60;;
17965;SDS011;9108;53.204;10.424;2023-07-28T13:48:44;1.50;;;1.40;;
17965;SDS011;9108;53.204;10.424;2023-07-28T13:51:11;2.78;;;1.40;;
17965;SDS011;9108;53.204;10.424;2023-07-28T13:53:44;1.50;;;1.30;;
17965;SDS011;9108;53.204;10.424;2023-07-28T13:56:11;2.10;;;1.42;;
17965;SDS011;9108;53.204;10.424;2023-07-28T13:58:50;1.47;;;1.30;;
17965;SDS011;9108;53.204;10.424;2023-07-28T14:01:17;1.40;;;1.30;;
17965;SDS011;9108;53.204;10.424;2023-07-28T14:03:44;1.80;;;1.40;;
17965;SDS011;9108;53.204;10.424;2023-07-28T14:06:14;2.10;;;1.30;;
17965;SDS011;9108;53.204;10.424;2023-07-28T14:08:50;2.97;;;1.48;;
17965;SDS011;9108;53.204;10.424;2023-07-28T14:11:37;1.92;;;1.42;;
17965;SDS011;9108;53.204;10.424;2023-07-28T14:14:06;1.73;;;1.30;;
17965;SDS011;9108;53.204;10.424;2023-07-28T14:16:40;1.63;;;1.30;;
17965;SDS011;9108;53.204;10.424;2023-07-28T14:19:08;1.90;;;1.10;;
17965;SDS011;9108;53.204;10.424;2023-07-28T14:21:38;1.20;;;1.10;;
17965;SDS011;9108;53.204;10.424;2023-07-28T14:24:09;2.00;;;1.38;;
17965;SDS011;9108;53.204;10.424;2023-07-28T14:26:36;1.83;;;1.10;;
17965;SDS011;9108;53.204;10.424;2023-07-28T14:29:22;2.28;;;1.35;;
17965;SDS011;9108;53.204;10.424;2023-07-28T14:31:52;2.05;;;1.35;;
17965;SDS011;9108;53.204;10.424;2023-07-28T14:34:19;3.47;;;1.52;;
17965;SDS011;9108;53.204;10.424;2023-07-28T14:36:50;1.65;;;1.33;;
17965;SDS011;9108;53.204;10.424;2023-07-28T14:39:18;1.98;;;1.42;;
17965;SDS011;9108;53.204;10.424;2023-07-28T14:41:52;2.50;;;1.30;;
17965;SDS011;9108;53.204;10.424;2023-07-28T14:44:28;2.65;;;1.48;;
17965;SDS011;9108;53.204;10.424;2023-07-28T14:46:59;1.77;;;1.23;;
17965;SDS011;9108;53.204;10.424;2023-07-28T14:49:35;3.60;;;1.30;;
17965;SDS011;9108;53.204;10.424;2023-07-28T14:52:09;2.03;;;1.50;;
17965;SDS011;9108;53.204;10.424;2023-07-28T14:54:36;1.87;;;1.40;;
17965;SDS011;9108;53.204;10.424;2023-07-28T14:57:06;2.25;;;1.15;;
17965;SDS011;9108;53.204;10.424;2023-07-28T14:59:40;3.22;;;1.42;;
17965;SDS011;9108;53.204;10.424;2023-07-28T15:02:08;2.00;;;1.40;;
17965;SDS011;9108;53.204;10.424;2023-07-28T15:04:36;1.73;;;1.30;;
17965;SDS011;9108;53.204;10.424;2023-07-28T15:07:04;6.05;;;1.50;;
17965;SDS011;9108;53.204;10.424;2023-07-28T15:09:37;1.58;;;1.30;;